sensor_id;sensor_type;location;lat;lon;timestamp;pressure;altitude;pressure_sealevel;temperature;humidity
30554;BME280;17335;50.720;7.452;2022-09-01T00:00:01;99707.19;;;14.05;100.00
30554;BME280;17335;50.720;7.452;2022-09-01T00:02:29;99711.84;;;13.95;100.00
30554;BME280;17335;50.720;7.452;2022-09-01T00:04:56;99709.59;;;13.90;100.00
30554;BME280;17335;50.720;7.452;2022-09-01T00:07:25;99707.59;;;13.92;100.00
30554;BME280;17335;50.720;7.452;2022-09-01T00:09:52;99700.53;;;13.91;100.00
30554;BME280;17335;50.720;7.452;2022-09-01T00:12:19;99703.75;;;13.95;100.00
30554;BME280;17335;50.720;7.452;2022-09-01T00:14:48;99698.03;;;13.98;100.00
30554;BME280;17335;50.720;7.452;2022-09-01T00:17:15;99706.81;;;14.00;100.00
30554;BME280;17335;50.720;7.452;2022-09-01T00:19:41;99698.72;;;14.00;100.00
30554;BME280;17335;50.720;7.452;2022-09-01T00:22:08;99705.78;;;14.01;100.00
30554;BME280;17335;50.720;7.452;2022-09-01T00:24:34;99702.94;;;14.02;100.00
30554;BME280;17335;50.720;7.452;2022-09-01T00:27:02;99702.41;;;13.99;100.00
30554;BME280;17335;50.720;7.452;2022-09-01T00:29:29;99708.84;;;13.98;100.00
30554;BME280;17335;50.720;7.452;2022-09-01T00:31:55;99717.09;;;13.96;100.00
30554;BME280;17335;50.720;7.452;2022-09-01T00:34:22;99709.81;;;13.97;100.00
30554;BME280;17335;50.720;7.452;2022-09-01T00:36:49;99714.69;;;13.93;100.00
30554;BME280;17335;50.720;7.452;2022-09-01T00:39:16;99709.44;;;13.92;100.00
30554;BME280;17335;50.720;7.452;2022-09-01T00:41:43;99713.00;;;13.92;100.00
30554;BME280;17335;50.720;7.452;2022-09-01T00:44:14;99705.91;;;13.91;100.00
30554;BME280;17335;50.720;7.452;2022-09-01T00:46:48;99709.91;;;13.87;100.00
30554;BME280;17335;50.720;7.452;2022-09-01T00:49:27;99706.00;;;13.81;100.00
30554;BME280;17335;50.720;7.452;2022-09-01T00:52:03;99710.19;;;13.76;100.00
30554;BME280;17335;50.720;7.452;2022-09-01T00:54:33;99708.47;;;13.75;100.00
30554;BME280;17335;50.720;7.452;2022-09-01T00:57:01;99712.34;;;13.72;100.00
30554;BME280;17335;50.720;7.452;2022-09-01T00:59:29;99710.25;;;13.66;100.00
30554;BME280;17335;50.720;7.452;2022-09-01T01:01:56;99714.66;;;13.67;100.00
30554;BME280;17335;50.720;7.452;2022-09-01T01:04:24;99702.47;;;13.63;100.00
30554;BME280;17335;50.720;7.452;2022-09-01T01:06:55;99709.34;;;13.57;100.00
30554;BME280;17335;50.720;7.452;2022-09-01T01:09:33;99711.50;;;13.54;100.00
30554;BME280;17335;50.720;7.452;2022-09-01T01:12:03;99709.13;;;13.50;100.00
30554;BME280;17335;50.720;7.452;2022-09-01T01:14:30;99706.88;;;13.46;100.00
30554;BME280;17335;50.720;7.452;2022-09-01T01:16:59;99699.25;;;13.41;100.00
30554;BME280;17335;50.720;7.452;2022-09-01T01:19:42;99705.25;;;13.35;100.00
30554;BME280;17335;50.720;7.452;2022-09-01T01:22:43;99708.09;;;13.34;100.00
30554;BME280;17335;50.720;7.452;2022-09-01T01:28:19;99709.69;;;13.26;100.00
30554;BME280;17335;50.720;7.452;2022-09-01T01:30:50;99702.28;;;13.28;100.00
30554;BME280;17335;50.720;7.452;2022-09-01T01:33:20;99705.00;;;13.28;100.00
30554;BME280;17335;50.720;7.452;2022-09-01T01:35:50;99709.69;;;13.26;100.00
30554;BME280;17335;50.720;7.452;2022-09-01T01:38:19;99709.31;;;13.21;100.00
30554;BME280;17335;50.720;7.452;2022-09-01T01:40:49;99705.09;;;13.19;100.00
30554;BME280;17335;50.720;7.452;2022-09-01T01:43:17;99704.22;;;13.18;100.00
30554;BME280;17335;50.720;7.452;2022-09-01T01:45:48;99702.00;;;13.13;100.00
30554;BME280;17335;50.720;7.452;2022-09-01T01:48:18;99700.00;;;13.16;100.00
30554;BME280;17335;50.720;7.452;2022-09-01T01:50:51;99696.47;;;13.15;100.00
30554;BME280;17335;50.720;7.452;2022-09-01T01:53:20;99699.34;;;13.04;100.00
30554;BME280;17335;50.720;7.452;2022-09-01T01:55:47;99707.75;;;13.01;100.00
30554;BME280;17335;50.720;7.452;2022-09-01T01:58:16;99710.59;;;12.99;100.00
30554;BME280;17335;50.720;7.452;2022-09-01T02:00:49;99703.03;;;13.03;100.00
30554;BME280;17335;50.720;7.452;2022-09-01T02:03:18;99709.84;;;13.07;100.00
30554;BME280;17335;50.720;7.452;2022-09-01T02:05:49;99708.28;;;13.04;100.00
30554;BME280;17335;50.720;7.452;2022-09-01T02:08:18;99706.59;;;13.03;100.00
30554;BME280;17335;50.720;7.452;2022-09-01T02:10:48;99693.56;;;12.99;100.00
30554;BME280;17335;50.720;7.452;2022-09-01T02:13:19;99698.44;;;12.95;100.00
30554;BME280;17335;50.720;7.452;2022-09-01T02:15:49;99709.19;;;12.95;100.00
30554;BME280;17335;50.720;7.452;2022-09-01T02:18:18;99704.66;;;12.95;100.00
30554;BME280;17335;50.720;7.452;2022-09-01T02:20:47;99706.66;;;12.93;100.00
30554;BME280;17335;50.720;7.452;2022-09-01T02:23:15;99712.34;;;12.90;100.00
30554;BME280;17335;50.720;7.452;2022-09-01T02:25:45;99711.50;;;12.90;100.00
30554;BME280;17335;50.720;7.452;2022-09-01T02:28:34;99712.78;;;12.86;100.00
30554;BME280;17335;50.720;7.452;2022-09-01T02:31:03;99711.41;;;12.82;100.00
30554;BME280;17335;50.720;7.452;2022-09-01T02:33:31;99705.63;;;12.76;100.00
30554;BME280;17335;50.720;7.452;2022-09-01T02:36:01;99715.69;;;12.74;100.00
30554;BME280;17335;50.720;7.452;2022-09-01T02:38:28;99718.69;;;12.71;100.00
30554;BME280;17335;50.720;7.452;2022-09-01T02:40:56;99711.91;;;12.67;100.00
30554;BME280;17335;50.720;7.452;2022-09-01T02:43:24;99706.81;;;12.64;100.00
30554;BME280;17335;50.720;7.452;2022-09-01T02:45:55;99709.09;;;12.59;100.00
30554;BME280;17335;50.720;7.452;2022-09-01T02:48:30;99706.31;;;12.51;100.00
30554;BME280;17335;50.720;7.452;2022-09-01T02:50:59;99704.91;;;12.47;100.00
30554;BME280;17335;50.720;7.452;2022-09-01T02:53:28;99701.34;;;12.46;100.00
30554;BME280;17335;50.720;7.452;2022-09-01T02:55:56;99700.66;;;12.44;100.00
30554;BME280;17335;50.720;7.452;2022-09-01T02:58:26;99703.50;;;12.43;100.00
30554;BME280;17335;50.720;7.452;2022-09-01T03:00:55;99707.91;;;12.44;100.00
30554;BME280;17335;50.720;7.452;2022-09-01T03:03:23;99703.50;;;12.43;100.00
30554;BME280;17335;50.720;7.452;2022-09-01T03:05:51;99699.41;;;12.38;100.00
30554;BME280;17335;50.720;7.452;2022-09-01T03:08:23;99707.91;;;12.34;100.00
30554;BME280;17335;50.720;7.452;2022-09-01T03:10:50;99694.75;;;12.31;100.00
30554;BME280;17335;50.720;7.452;2022-09-01T03:13:22;99702.44;;;12.26;100.00
30554;BME280;17335;50.720;7.452;2022-09-01T03:15:52;99707.25;;;12.22;100.00
30554;BME280;17335;50.720;7.452;2022-09-01T03:18:19;99707.44;;;12.21;100.00
30554;BME280;17335;50.720;7.452;2022-09-01T03:20:46;99709.53;;;12.17;100.00
30554;BME280;17335;50.720;7.452;2022-09-01T03:23:15;99706.84;;;12.17;100.00
30554;BME280;17335;50.720;7.452;2022-09-01T03:25:46;99710.41;;;12.17;100.00
30554;BME280;17335;50.720;7.452;2022-09-01T03:28:13;99710.53;;;12.16;100.00
30554;BME280;17335;50.720;7.452;2022-09-01T03:30:49;99703.03;;;12.10;100.00
30554;BME280;17335;50.720;7.452;2022-09-01T03:33:18;99703.31;;;12.07;100.00
30554;BME280;17335;50.720;7.452;2022-09-01T03:35:46;99705.91;;;11.98;100.00
30554;BME280;17335;50.720;7.452;2022-09-01T03:38:14;99708.72;;;11.87;100.00
30554;BME280;17335;50.720;7.452;2022-09-01T03:40:46;99705.06;;;11.78;100.00
30554;BME280;17335;50.720;7.452;2022-09-01T03:43:14;99702.50;;;11.77;100.00
30554;BME280;17335;50.720;7.452;2022-09-01T03:45:42;99706.22;;;11.76;100.00
30554;BME280;17335;50.720;7.452;2022-09-01T03:48:09;99702.09;;;11.81;100.00
30554;BME280;17335;50.720;7.452;2022-09-01T03:50:39;99706.03;;;11.77;100.00
30554;BME280;17335;50.720;7.452;2022-09-01T03:53:07;99707.34;;;11.73;100.00
30554;BME280;17335;50.720;7.452;2022-09-01T03:55:35;99706.91;;;11.68;100.00
30554;BME280;17335;50.720;7.452;2022-09-01T03:58:06;99702.25;;;11.60;100.00
30554;BME280;17335;50.720;7.452;2022-09-01T04:00:42;99703.09;;;11.61;100.00
30554;BME280;17335;50.720;7.452;2022-09-01T04:03:15;99702.25;;;11.60;100.00
30554;BME280;17335;50.720;7.452;2022-09-01T04:05:58;99707.06;;;11.57;100.00
30554;BME280;17335;50.720;7.452;2022-09-01T04:08:25;99710.75;;;11.56;100.00
30554;BME280;17335;50.720;7.452;2022-09-01T04:11:13;99705.78;;;11.51;100.00
30554;BME280;17335;50.720;7.452;2022-09-01T04:13:41;99705.09;;;11.49;100.00
30554;BME280;17335;50.720;7.452;2022-09-01T04:16:17;99710.47;;;11.49;100.00
30554;BME280;17335;50.720;7.452;2022-09-01T04:19:03;99707.06;;;11.47;100.00
30554;BME280;17335;50.720;7.452;2022-09-01T04:21:42;99703.53;;;11.37;100.00
30554;BME280;17335;50.720;7.452;2022-09-01T04:24:09;99706.50;;;11.34;100.00
30554;BME280;17335;50.720;7.452;2022-09-01T04:26:38;99708.19;;;11.25;100.00
30554;BME280;17335;50.720;7.452;2022-09-01T04:29:06;99718.09;;;11.24;100.00
30554;BME280;17335;50.720;7.452;2022-09-01T04:31:35;99719.78;;;11.25;100.00
30554;BME280;17335;50.720;7.452;2022-09-01T04:34:04;99718.81;;;11.26;100.00
30554;BME280;17335;50.720;7.452;2022-09-01T04:36:40;99711.44;;;11.29;100.00
30554;BME280;17335;50.720;7.452;2022-09-01T04:39:07;99715.09;;;11.27;100.00
30554;BME280;17335;50.720;7.452;2022-09-01T04:41:42;99711.03;;;11.23;100.00
30554;BME280;17335;50.720;7.452;2022-09-01T04:44:12;99709.03;;;11.16;100.00
30554;BME280;17335;50.720;7.452;2022-09-01T04:46:45;99715.25;;;11.16;100.00
30554;BME280;17335;50.720;7.452;2022-09-01T04:49:14;99704.25;;;11.19;100.00
30554;BME280;17335;50.720;7.452;2022-09-01T04:51:47;99710.88;;;11.15;100.00
30554;BME280;17335;50.720;7.452;2022-09-01T04:54:20;99723.19;;;11.18;100.00
30554;BME280;17335;50.720;7.452;2022-09-01T04:56:49;99718.38;;;11.21;100.00
30554;BME280;17335;50.720;7.452;2022-09-01T04:59:19;99720.22;;;11.31;100.00
30554;BME280;17335;50.720;7.452;2022-09-01T05:01:48;99715.53;;;11.33;100.00
30554;BME280;17335;50.720;7.452;2022-09-01T05:04:18;99715.53;;;11.33;100.00
30554;BME280;17335;50.720;7.452;2022-09-01T05:06:52;99712.84;;;11.33;100.00
30554;BME280;17335;50.720;7.452;2022-09-01T05:09:23;99714.44;;;11.35;100.00
30554;BME280;17335;50.720;7.452;2022-09-01T05:11:52;99717.69;;;11.39;100.00
30554;BME280;17335;50.720;7.452;2022-09-01T05:14:19;99711.88;;;11.43;100.00
30554;BME280;17335;50.720;7.452;2022-09-01T05:16:48;99715.41;;;11.44;100.00
30554;BME280;17335;50.720;7.452;2022-09-01T05:19:16;99719.81;;;11.45;100.00
30554;BME280;17335;50.720;7.452;2022-09-01T05:21:46;99715.97;;;11.48;100.00
30554;BME280;17335;50.720;7.452;2022-09-01T05:24:17;99726.31;;;11.52;100.00
30554;BME280;17335;50.720;7.452;2022-09-01T05:26:45;99725.16;;;11.55;100.00
30554;BME280;17335;50.720;7.452;2022-09-01T05:29:14;99726.75;;;11.57;100.00
30554;BME280;17335;50.720;7.452;2022-09-01T05:31:45;99725.31;;;11.63;100.00
30554;BME280;17335;50.720;7.452;2022-09-01T05:34:15;99719.81;;;11.64;100.00
30554;BME280;17335;50.720;7.452;2022-09-01T05:36:53;99720.50;;;11.67;100.00
30554;BME280;17335;50.720;7.452;2022-09-01T05:39:21;99721.94;;;11.71;100.00
30554;BME280;17335;50.720;7.452;2022-09-01T05:41:47;99718.66;;;11.77;100.00
30554;BME280;17335;50.720;7.452;2022-09-01T05:44:15;99719.78;;;11.84;100.00
30554;BME280;17335;50.720;7.452;2022-09-01T05:46:42;99718.50;;;11.88;100.00
30554;BME280;17335;50.720;7.452;2022-09-01T05:49:10;99718.81;;;11.95;100.00
30554;BME280;17335;50.720;7.452;2022-09-01T05:51:44;99727.88;;;12.04;100.00
30554;BME280;17335;50.720;7.452;2022-09-01T05:54:18;99724.56;;;12.10;100.00
30554;BME280;17335;50.720;7.452;2022-09-01T05:56:47;99721.16;;;12.17;100.00
30554;BME280;17335;50.720;7.452;2022-09-01T05:59:15;99724.81;;;12.26;100.00
30554;BME280;17335;50.720;7.452;2022-09-01T06:01:51;99721.84;;;12.29;100.00
30554;BME280;17335;50.720;7.452;2022-09-01T06:04:18;99725.94;;;12.33;100.00
30554;BME280;17335;50.720;7.452;2022-09-01T06:06:47;99713.72;;;12.39;100.00
30554;BME280;17335;50.720;7.452;2022-09-01T06:09:40;99715.00;;;12.45;100.00
30554;BME280;17335;50.720;7.452;2022-09-01T06:12:08;99716.78;;;12.54;100.00
30554;BME280;17335;50.720;7.452;2022-09-01T06:14:49;99724.09;;;12.62;100.00
30554;BME280;17335;50.720;7.452;2022-09-01T06:17:17;99720.69;;;12.69;100.00
30554;BME280;17335;50.720;7.452;2022-09-01T06:19:47;99717.47;;;12.84;100.00
30554;BME280;17335;50.720;7.452;2022-09-01T06:22:14;99718.81;;;12.98;100.00
30554;BME280;17335;50.720;7.452;2022-09-01T06:24:42;99714.19;;;13.36;100.00
30554;BME280;17335;50.720;7.452;2022-09-01T06:27:11;99697.47;;;13.68;100.00
30554;BME280;17335;50.720;7.452;2022-09-01T06:29:38;99696.91;;;13.82;100.00
30554;BME280;17335;50.720;7.452;2022-09-01T06:32:06;99692.47;;;13.99;100.00
30554;BME280;17335;50.720;7.452;2022-09-01T06:34:39;99685.69;;;14.21;100.00
30554;BME280;17335;50.720;7.452;2022-09-01T06:37:11;99677.31;;;14.33;100.00
30554;BME280;17335;50.720;7.452;2022-09-01T06:39:38;99672.59;;;14.35;100.00
30554;BME280;17335;50.720;7.452;2022-09-01T06:42:05;99663.53;;;14.44;100.00
30554;BME280;17335;50.720;7.452;2022-09-01T06:44:32;99669.47;;;14.48;100.00
30554;BME280;17335;50.720;7.452;2022-09-01T06:46:59;99669.03;;;14.60;100.00
30554;BME280;17335;50.720;7.452;2022-09-01T06:49:26;99668.13;;;14.94;100.00
30554;BME280;17335;50.720;7.452;2022-09-01T06:51:59;99662.75;;;15.03;100.00
30554;BME280;17335;50.720;7.452;2022-09-01T06:54:26;99672.88;;;15.09;100.00
30554;BME280;17335;50.720;7.452;2022-09-01T06:56:52;99665.47;;;15.27;100.00
30554;BME280;17335;50.720;7.452;2022-09-01T06:59:20;99664.81;;;15.50;100.00
30554;BME280;17335;50.720;7.452;2022-09-01T07:01:47;99666.00;;;15.64;100.00
30554;BME280;17335;50.720;7.452;2022-09-01T07:04:39;99673.44;;;15.86;100.00
30554;BME280;17335;50.720;7.452;2022-09-01T07:07:09;99668.19;;;16.01;100.00
30554;BME280;17335;50.720;7.452;2022-09-01T07:09:56;99676.97;;;16.20;100.00
30554;BME280;17335;50.720;7.452;2022-09-01T07:12:43;99676.91;;;16.28;100.00
30554;BME280;17335;50.720;7.452;2022-09-01T07:15:31;99675.91;;;16.37;100.00
30554;BME280;17335;50.720;7.452;2022-09-01T07:18:19;99664.16;;;16.45;100.00
30554;BME280;17335;50.720;7.452;2022-09-01T07:20:47;99665.69;;;16.56;100.00
30554;BME280;17335;50.720;7.452;2022-09-01T07:23:34;99664.28;;;16.60;100.00
30554;BME280;17335;50.720;7.452;2022-09-01T07:26:24;99658.81;;;16.76;100.00
30554;BME280;17335;50.720;7.452;2022-09-01T07:28:52;99665.91;;;16.85;100.00
30554;BME280;17335;50.720;7.452;2022-09-01T07:31:40;99660.78;;;16.91;100.00
30554;BME280;17335;50.720;7.452;2022-09-01T07:34:28;99666.22;;;16.91;100.00
30554;BME280;17335;50.720;7.452;2022-09-01T07:37:05;99665.25;;;17.06;100.00
30554;BME280;17335;50.720;7.452;2022-09-01T07:39:51;99656.16;;;17.22;100.00
30554;BME280;17335;50.720;7.452;2022-09-01T07:42:21;99662.00;;;17.34;100.00
30554;BME280;17335;50.720;7.452;2022-09-01T07:45:09;99672.53;;;17.37;100.00
30554;BME280;17335;50.720;7.452;2022-09-01T07:47:53;99678.13;;;17.36;100.00
30554;BME280;17335;50.720;7.452;2022-09-01T07:50:20;99672.63;;;17.44;100.00
30554;BME280;17335;50.720;7.452;2022-09-01T07:53:06;99668.59;;;17.63;100.00
30554;BME280;17335;50.720;7.452;2022-09-01T07:55:34;99679.56;;;17.70;100.00
30554;BME280;17335;50.720;7.452;2022-09-01T07:58:01;99671.00;;;17.81;100.00
30554;BME280;17335;50.720;7.452;2022-09-01T08:00:27;99672.66;;;17.82;100.00
30554;BME280;17335;50.720;7.452;2022-09-01T08:02:57;99671.09;;;17.88;100.00
30554;BME280;17335;50.720;7.452;2022-09-01T08:05:24;99674.63;;;17.96;100.00
30554;BME280;17335;50.720;7.452;2022-09-01T08:07:53;99673.56;;;17.97;100.00
30554;BME280;17335;50.720;7.452;2022-09-01T08:10:19;99670.97;;;18.04;100.00
30554;BME280;17335;50.720;7.452;2022-09-01T08:12:46;99675.72;;;18.17;100.00
30554;BME280;17335;50.720;7.452;2022-09-01T08:15:22;99674.63;;;18.26;100.00
30554;BME280;17335;50.720;7.452;2022-09-01T08:18:07;99667.50;;;18.40;100.00
30554;BME280;17335;50.720;7.452;2022-09-01T08:20:37;99678.66;;;18.45;100.00
30554;BME280;17335;50.720;7.452;2022-09-01T08:23:05;99672.47;;;18.51;100.00
30554;BME280;17335;50.720;7.452;2022-09-01T08:25:35;99672.72;;;18.56;100.00
30554;BME280;17335;50.720;7.452;2022-09-01T08:28:03;99672.47;;;18.66;100.00
30554;BME280;17335;50.720;7.452;2022-09-01T08:30:31;99676.56;;;18.77;100.00
30554;BME280;17335;50.720;7.452;2022-09-01T08:32:59;99669.56;;;18.83;100.00
30554;BME280;17335;50.720;7.452;2022-09-01T08:35:38;99670.38;;;18.98;100.00
30554;BME280;17335;50.720;7.452;2022-09-01T08:38:05;99671.41;;;18.97;100.00
30554;BME280;17335;50.720;7.452;2022-09-01T08:40:32;99675.69;;;19.06;100.00
30554;BME280;17335;50.720;7.452;2022-09-01T08:48:42;99661.13;;;19.36;100.00
30554;BME280;17335;50.720;7.452;2022-09-01T08:51:56;99663.91;;;19.42;100.00
30554;BME280;17335;50.720;7.452;2022-09-01T08:54:41;99669.25;;;19.51;100.00
30554;BME280;17335;50.720;7.452;2022-09-01T08:57:19;99655.75;;;19.64;100.00
30554;BME280;17335;50.720;7.452;2022-09-01T08:59:47;99657.97;;;19.54;100.00
30554;BME280;17335;50.720;7.452;2022-09-01T09:02:38;99657.44;;;19.65;100.00
30554;BME280;17335;50.720;7.452;2022-09-01T09:16:39;99651.56;;;20.18;100.00
30554;BME280;17335;50.720;7.452;2022-09-01T09:19:29;99646.97;;;20.18;100.00
30554;BME280;17335;50.720;7.452;2022-09-01T09:21:59;99639.09;;;20.37;100.00
30554;BME280;17335;50.720;7.452;2022-09-01T09:24:47;99653.00;;;20.49;100.00
30554;BME280;17335;50.720;7.452;2022-09-01T09:27:30;99638.88;;;20.67;100.00
30554;BME280;17335;50.720;7.452;2022-09-01T09:32:50;99641.84;;;20.85;100.00
30554;BME280;17335;50.720;7.452;2022-09-01T09:35:45;99625.50;;;20.92;100.00
30554;BME280;17335;50.720;7.452;2022-09-01T09:41:15;99628.69;;;21.09;100.00
30554;BME280;17335;50.720;7.452;2022-09-01T09:46:39;99626.47;;;21.46;100.00
30554;BME280;17335;50.720;7.452;2022-09-01T09:49:27;99615.56;;;21.59;100.00
30554;BME280;17335;50.720;7.452;2022-09-01T09:57:24;99614.06;;;21.97;100.00
30554;BME280;17335;50.720;7.452;2022-09-01T10:04:59;99610.50;;;21.96;100.00
30554;BME280;17335;50.720;7.452;2022-09-01T10:07:35;99602.09;;;21.98;98.72
30554;BME280;17335;50.720;7.452;2022-09-01T10:10:24;99604.38;;;22.07;97.80
30554;BME280;17335;50.720;7.452;2022-09-01T10:12:54;99601.59;;;22.21;97.13
30554;BME280;17335;50.720;7.452;2022-09-01T10:15:24;99602.41;;;22.41;99.34
30554;BME280;17335;50.720;7.452;2022-09-01T10:17:53;99603.56;;;22.65;95.90
30554;BME280;17335;50.720;7.452;2022-09-01T10:20:50;99591.59;;;22.98;99.83
30554;BME280;17335;50.720;7.452;2022-09-01T10:23:18;99579.78;;;23.11;95.58
30554;BME280;17335;50.720;7.452;2022-09-01T10:25:46;99592.91;;;23.28;99.16
30554;BME280;17335;50.720;7.452;2022-09-01T10:28:18;99586.78;;;23.32;97.83
30554;BME280;17335;50.720;7.452;2022-09-01T10:30:52;99590.09;;;23.41;94.91
30554;BME280;17335;50.720;7.452;2022-09-01T10:33:21;99581.16;;;23.52;89.98
30554;BME280;17335;50.720;7.452;2022-09-01T10:35:51;99581.94;;;23.59;91.47
30554;BME280;17335;50.720;7.452;2022-09-01T10:38:28;99583.56;;;23.42;96.24
30554;BME280;17335;50.720;7.452;2022-09-01T10:40:57;99586.13;;;23.37;91.67
30554;BME280;17335;50.720;7.452;2022-09-01T10:43:48;99572.66;;;23.61;89.98
30554;BME280;17335;50.720;7.452;2022-09-01T10:51:50;99584.53;;;23.98;93.99
30554;BME280;17335;50.720;7.452;2022-09-01T10:54:51;99561.78;;;24.34;84.54
30554;BME280;17335;50.720;7.452;2022-09-01T10:57:45;99565.28;;;24.23;87.34
30554;BME280;17335;50.720;7.452;2022-09-01T11:03:31;99574.41;;;23.48;98.77
30554;BME280;17335;50.720;7.452;2022-09-01T11:06:07;99579.56;;;23.13;97.29
30554;BME280;17335;50.720;7.452;2022-09-01T11:08:42;99581.22;;;23.14;99.30
30554;BME280;17335;50.720;7.452;2022-09-01T11:11:45;99579.38;;;23.01;94.37
30554;BME280;17335;50.720;7.452;2022-09-01T11:14:19;99578.16;;;23.29;97.53
30554;BME280;17335;50.720;7.452;2022-09-01T11:17:11;99573.97;;;23.51;90.90
30554;BME280;17335;50.720;7.452;2022-09-01T11:22:37;99581.50;;;22.99;91.61
30554;BME280;17335;50.720;7.452;2022-09-01T11:36:15;99556.88;;;23.31;91.24
30554;BME280;17335;50.720;7.452;2022-09-01T11:38:51;99555.81;;;23.57;91.96
30554;BME280;17335;50.720;7.452;2022-09-01T11:41:27;99556.72;;;23.94;85.96
30554;BME280;17335;50.720;7.452;2022-09-01T11:44:00;99557.66;;;23.88;83.20
30554;BME280;17335;50.720;7.452;2022-09-01T11:46:33;99555.72;;;23.45;89.40
30554;BME280;17335;50.720;7.452;2022-09-01T11:49:26;99565.81;;;23.19;90.64
30554;BME280;17335;50.720;7.452;2022-09-01T11:51:55;99565.91;;;23.06;91.77
30554;BME280;17335;50.720;7.452;2022-09-01T11:54:23;99560.44;;;23.06;93.99
30554;BME280;17335;50.720;7.452;2022-09-01T11:56:50;99556.50;;;22.89;93.52
30554;BME280;17335;50.720;7.452;2022-09-01T11:59:33;99556.81;;;23.37;95.25
30554;BME280;17335;50.720;7.452;2022-09-01T12:02:00;99559.59;;;23.31;89.24
30554;BME280;17335;50.720;7.452;2022-09-01T12:04:33;99560.78;;;23.16;92.88
30554;BME280;17335;50.720;7.452;2022-09-01T12:07:05;99555.34;;;23.03;90.06
30554;BME280;17335;50.720;7.452;2022-09-01T12:09:41;99550.69;;;23.10;94.25
30554;BME280;17335;50.720;7.452;2022-09-01T12:12:32;99544.28;;;23.73;93.33
30554;BME280;17335;50.720;7.452;2022-09-01T12:15:10;99542.13;;;24.19;82.76
30554;BME280;17335;50.720;7.452;2022-09-01T12:17:45;99533.19;;;24.61;83.30
30554;BME280;17335;50.720;7.452;2022-09-01T12:22:44;99530.06;;;24.39;70.02
30554;BME280;17335;50.720;7.452;2022-09-01T12:25:21;99515.31;;;24.70;82.52
30554;BME280;17335;50.720;7.452;2022-09-01T12:27:51;99535.25;;;25.07;72.93
30554;BME280;17335;50.720;7.452;2022-09-01T12:30:19;99522.75;;;25.35;71.67
30554;BME280;17335;50.720;7.452;2022-09-01T12:32:47;99520.03;;;25.71;70.61
30554;BME280;17335;50.720;7.452;2022-09-01T12:35:20;99522.66;;;25.77;61.07
30554;BME280;17335;50.720;7.452;2022-09-01T12:37:47;99512.59;;;25.83;62.06
30554;BME280;17335;50.720;7.452;2022-09-01T12:40:25;99513.56;;;25.89;62.26
30554;BME280;17335;50.720;7.452;2022-09-01T12:42:57;99515.59;;;25.93;57.35
30554;BME280;17335;50.720;7.452;2022-09-01T12:45:45;99506.47;;;26.16;56.35
30554;BME280;17335;50.720;7.452;2022-09-01T12:48:27;99505.72;;;26.33;59.14
30554;BME280;17335;50.720;7.452;2022-09-01T12:50:58;99513.59;;;26.41;55.13
30554;BME280;17335;50.720;7.452;2022-09-01T12:53:28;99501.44;;;26.54;57.83
30554;BME280;17335;50.720;7.452;2022-09-01T12:56:14;99490.66;;;26.64;52.66
30554;BME280;17335;50.720;7.452;2022-09-01T12:58:46;99491.16;;;26.78;59.58
30554;BME280;17335;50.720;7.452;2022-09-01T13:01:30;99499.63;;;26.60;52.55
30554;BME280;17335;50.720;7.452;2022-09-01T13:04:11;99498.03;;;25.94;51.03
30554;BME280;17335;50.720;7.452;2022-09-01T13:06:38;99501.13;;;26.10;50.97
30554;BME280;17335;50.720;7.452;2022-09-01T13:09:05;99489.97;;;26.16;50.78
30554;BME280;17335;50.720;7.452;2022-09-01T13:11:31;99487.03;;;26.35;54.13
30554;BME280;17335;50.720;7.452;2022-09-01T13:14:18;99493.94;;;26.49;49.73
30554;BME280;17335;50.720;7.452;2022-09-01T13:16:45;99486.44;;;26.33;48.48
30554;BME280;17335;50.720;7.452;2022-09-01T13:19:12;99477.91;;;26.46;48.51
30554;BME280;17335;50.720;7.452;2022-09-01T13:21:47;99482.72;;;26.39;49.98
30554;BME280;17335;50.720;7.452;2022-09-01T13:24:14;99479.47;;;26.42;47.98
30554;BME280;17335;50.720;7.452;2022-09-01T13:26:41;99479.00;;;25.93;47.74
30554;BME280;17335;50.720;7.452;2022-09-01T13:29:29;99466.78;;;26.12;48.05
30554;BME280;17335;50.720;7.452;2022-09-01T13:31:57;99454.75;;;26.30;47.27
30554;BME280;17335;50.720;7.452;2022-09-01T13:34:44;99459.91;;;26.55;46.15
30554;BME280;17335;50.720;7.452;2022-09-01T13:37:11;99455.97;;;26.51;45.22
30554;BME280;17335;50.720;7.452;2022-09-01T13:39:37;99444.25;;;26.73;44.95
30554;BME280;17335;50.720;7.452;2022-09-01T13:42:04;99447.09;;;26.78;44.08
30554;BME280;17335;50.720;7.452;2022-09-01T13:44:31;99450.56;;;26.28;45.24
30554;BME280;17335;50.720;7.452;2022-09-01T13:46:58;99448.50;;;26.35;45.16
30554;BME280;17335;50.720;7.452;2022-09-01T13:49:26;99453.44;;;25.80;48.13
30554;BME280;17335;50.720;7.452;2022-09-01T13:52:13;99450.81;;;25.86;44.53
30554;BME280;17335;50.720;7.452;2022-09-01T13:54:39;99449.09;;;26.08;44.53
30554;BME280;17335;50.720;7.452;2022-09-01T13:57:06;99437.00;;;26.38;44.76
30554;BME280;17335;50.720;7.452;2022-09-01T13:59:32;99440.78;;;26.78;44.65
30554;BME280;17335;50.720;7.452;2022-09-01T14:01:59;99437.38;;;26.87;43.33
30554;BME280;17335;50.720;7.452;2022-09-01T14:04:26;99440.38;;;26.57;42.90
30554;BME280;17335;50.720;7.452;2022-09-01T14:06:53;99441.34;;;26.34;45.48
30554;BME280;17335;50.720;7.452;2022-09-01T14:09:20;99442.34;;;25.75;43.83
30554;BME280;17335;50.720;7.452;2022-09-01T14:11:47;99447.28;;;25.50;47.48
30554;BME280;17335;50.720;7.452;2022-09-01T14:14:13;99441.78;;;25.26;46.50
30554;BME280;17335;50.720;7.452;2022-09-01T14:16:40;99439.91;;;24.84;45.25
30554;BME280;17335;50.720;7.452;2022-09-01T14:19:06;99441.00;;;24.95;48.65
30554;BME280;17335;50.720;7.452;2022-09-01T14:21:33;99438.06;;;25.32;49.97
30554;BME280;17335;50.720;7.452;2022-09-01T14:24:00;99442.38;;;25.40;46.62